Terminal Aerodrome Forecast
Issued by NWS

Home | Current Version | Previous Version | Text Only | Print | Product List | Glossary On
Versions: 1 2 3 4 5 6 7 8 9 10 11 12 13 14 15 16 17 18 19 20 21 22 23 24 25 26 27 28 29 30 31 32
290
FTUS43 KPAH 300817 AAA
TAFCGI
TAF AMD
KCGI 300817Z 3008/3106 00000KT P6SM SCT250
      TEMPO 3008/3012 4SM BR
     FM301400 29003KT P6SM BKN015
     FM301800 27006KT P6SM SCT030 BKN050=

USA.gov is the U.S. government's official web portal to all federal, state and local government web resources and services.